createdAt,value
2019-03-17T00:01:43.031Z,2.40
2019-03-17T00:04:13.068Z,2.27
2019-03-17T00:06:43.134Z,2.10
2019-03-17T00:09:13.237Z,2.17
2019-03-17T00:11:43.267Z,2.30
2019-03-17T00:14:13.394Z,2.00
2019-03-17T00:16:43.421Z,2.40
2019-03-17T00:19:13.575Z,2.30
2019-03-17T00:21:43.652Z,2.03
2019-03-17T00:24:13.696Z,2.40
2019-03-17T00:26:43.699Z,2.20
2019-03-17T00:29:13.816Z,2.23
2019-03-17T00:31:43.860Z,2.23
2019-03-17T00:34:13.936Z,2.20
2019-03-17T00:36:43.979Z,2.20
2019-03-17T00:39:14.083Z,3.13
2019-03-17T00:41:44.109Z,2.10
2019-03-17T00:44:14.174Z,2.50
2019-03-17T00:46:44.212Z,3.73
2019-03-17T00:49:14.314Z,2.13
2019-03-17T00:51:44.359Z,1.97
2019-03-17T00:54:14.398Z,2.33
2019-03-17T00:56:44.451Z,2.10
2019-03-17T00:59:14.602Z,2.53
2019-03-17T01:01:44.635Z,2.13
2019-03-17T01:04:14.788Z,2.10
2019-03-17T01:06:44.888Z,3.23
2019-03-17T01:09:15.013Z,2.70
2019-03-17T01:11:45.306Z,2.20
2019-03-17T01:14:15.448Z,2.20
2019-03-17T01:16:45.568Z,2.33
2019-03-17T01:19:15.714Z,2.37
2019-03-17T01:21:46.008Z,2.17
2019-03-17T01:24:16.078Z,2.30
2019-03-17T01:26:46.171Z,2.30
2019-03-17T01:29:16.314Z,2.33
2019-03-17T01:31:46.460Z,2.43
2019-03-17T01:34:16.579Z,2.30
2019-03-17T01:36:46.696Z,2.30
2019-03-17T01:39:17.528Z,2.30
2019-03-17T01:41:47.650Z,2.73
2019-03-17T01:44:17.782Z,2.40
2019-03-17T01:46:47.807Z,2.20
2019-03-17T01:49:17.957Z,2.40
2019-03-17T01:51:48.032Z,2.40
2019-03-17T01:54:18.156Z,2.30
2019-03-17T01:56:48.243Z,2.20
2019-03-17T01:59:18.399Z,2.83
2019-03-17T02:01:48.578Z,2.40
2019-03-17T02:04:18.778Z,2.53
2019-03-17T02:06:49.050Z,2.47
2019-03-17T02:09:19.162Z,2.37
2019-03-17T02:11:49.296Z,2.60
2019-03-17T02:14:19.652Z,2.80
2019-03-17T02:16:49.725Z,2.53
2019-03-17T02:19:19.850Z,2.70
2019-03-17T02:21:50.003Z,2.67
2019-03-17T02:24:20.027Z,2.73
2019-03-17T02:26:50.157Z,2.60
2019-03-17T02:29:20.169Z,2.80
2019-03-17T02:31:50.253Z,2.77
2019-03-17T02:34:20.306Z,2.80
2019-03-17T02:36:50.342Z,3.03
2019-03-17T02:39:20.382Z,2.83
2019-03-17T02:41:50.460Z,2.80
2019-03-17T02:44:20.489Z,2.20
2019-03-17T02:46:50.530Z,2.30
2019-03-17T02:49:20.566Z,3.13
2019-03-17T02:51:50.639Z,2.63
2019-03-17T02:54:20.662Z,2.40
2019-03-17T02:56:50.723Z,2.67
2019-03-17T02:59:22.449Z,3.17
2019-03-17T03:01:52.492Z,2.50
2019-03-17T03:04:22.705Z,2.37
2019-03-17T03:06:52.747Z,2.57
2019-03-17T03:09:22.771Z,2.60
2019-03-17T03:11:52.824Z,2.60
2019-03-17T03:14:22.903Z,2.50
2019-03-17T03:16:52.943Z,2.60
2019-03-17T03:19:22.987Z,2.20
2019-03-17T03:21:53.026Z,2.67
2019-03-17T03:24:23.034Z,2.50
2019-03-17T03:26:53.073Z,2.30
2019-03-17T03:29:23.108Z,2.50
2019-03-17T03:31:53.236Z,2.97
2019-03-17T03:34:23.254Z,2.90
2019-03-17T03:36:53.314Z,2.40
2019-03-17T03:39:23.365Z,2.37
2019-03-17T03:41:53.438Z,3.00
2019-03-17T03:44:23.486Z,2.60
2019-03-17T03:46:53.515Z,2.17
2019-03-17T03:49:23.553Z,2.43
2019-03-17T03:51:53.653Z,2.20
2019-03-17T03:54:23.825Z,2.07
2019-03-17T03:56:53.810Z,2.00
2019-03-17T03:59:23.826Z,2.00
2019-03-17T04:01:53.882Z,2.17
2019-03-17T04:04:23.964Z,2.17
2019-03-17T04:06:54.098Z,2.30
2019-03-17T04:09:24.141Z,1.80
2019-03-17T04:11:54.250Z,1.87
2019-03-17T04:14:24.359Z,2.13
2019-03-17T04:16:54.434Z,2.10
2019-03-17T04:19:24.439Z,2.20
2019-03-17T04:21:54.486Z,2.10
2019-03-17T04:24:24.534Z,1.93
2019-03-17T04:26:54.548Z,2.00
2019-03-17T04:29:24.573Z,1.90
2019-03-17T04:31:54.621Z,2.00
2019-03-17T04:34:24.745Z,1.90
2019-03-17T04:36:54.896Z,1.80
2019-03-17T04:39:24.881Z,2.03
2019-03-17T04:41:54.914Z,3.00
2019-03-17T04:44:24.942Z,1.80
2019-03-17T04:46:55.050Z,1.87
2019-03-17T04:49:25.045Z,1.57
2019-03-17T04:51:55.060Z,2.20
2019-03-17T04:54:25.069Z,2.37
2019-03-17T04:56:55.129Z,1.93
2019-03-17T04:59:25.168Z,1.63
2019-03-17T05:01:55.187Z,2.10
2019-03-17T05:04:25.235Z,2.03
2019-03-17T05:06:55.287Z,2.13
2019-03-17T05:09:25.277Z,1.90
2019-03-17T05:11:55.317Z,2.00
2019-03-17T05:14:25.420Z,2.20
2019-03-17T05:16:55.465Z,2.40
2019-03-17T05:19:25.516Z,1.90
2019-03-17T05:21:55.617Z,1.73
2019-03-17T05:24:25.703Z,2.30
2019-03-17T05:26:55.764Z,2.43
2019-03-17T05:29:25.830Z,2.17
2019-03-17T05:31:55.929Z,2.00
2019-03-17T05:34:25.938Z,1.93
2019-03-17T05:37:05.336Z,2.20
2019-03-17T05:39:27.778Z,2.60
2019-03-17T05:41:57.777Z,2.67
2019-03-17T05:44:27.823Z,2.10
2019-03-17T05:46:57.838Z,2.07
2019-03-17T05:49:27.913Z,2.33
2019-03-17T05:51:57.943Z,1.97
2019-03-17T05:54:27.994Z,2.30
2019-03-17T05:56:58.082Z,2.70
2019-03-17T05:59:28.156Z,2.70
2019-03-17T06:01:58.198Z,2.40
2019-03-17T06:04:28.344Z,2.40
2019-03-17T06:06:58.353Z,3.73
2019-03-17T06:09:28.456Z,2.20
2019-03-17T06:11:58.562Z,2.20
2019-03-17T06:14:28.712Z,2.40
2019-03-17T06:16:58.748Z,2.50
2019-03-17T06:19:28.844Z,2.80
2019-03-17T06:22:00.542Z,2.13
2019-03-17T06:24:30.878Z,2.50
2019-03-17T06:27:00.911Z,2.30
2019-03-17T06:29:30.984Z,2.10
2019-03-17T06:32:01.049Z,2.20
2019-03-17T06:34:31.094Z,2.33
2019-03-17T06:37:01.180Z,2.73
2019-03-17T06:39:31.348Z,2.60
2019-03-17T06:42:01.364Z,2.70
2019-03-17T06:44:31.508Z,2.73
2019-03-17T06:47:01.621Z,2.93
2019-03-17T06:49:31.748Z,2.53
2019-03-17T06:52:01.804Z,2.40
2019-03-17T06:54:31.878Z,2.70
2019-03-17T06:57:01.921Z,2.57
2019-03-17T06:59:31.971Z,3.00
2019-03-17T07:02:02.041Z,2.33
2019-03-17T07:04:32.101Z,2.57
2019-03-17T07:07:02.148Z,2.73
2019-03-17T07:09:32.222Z,2.77
2019-03-17T07:12:02.430Z,2.80
2019-03-17T07:14:32.947Z,2.63
2019-03-17T07:17:03.002Z,2.93
2019-03-17T07:19:33.090Z,2.80
2019-03-17T07:22:03.228Z,2.60
2019-03-17T07:24:33.326Z,2.40
2019-03-17T07:27:03.357Z,2.90
2019-03-17T07:29:33.550Z,2.20
2019-03-17T07:32:03.654Z,2.70
2019-03-17T07:34:34.852Z,2.73
2019-03-17T07:37:04.882Z,2.50
2019-03-17T07:39:34.975Z,2.50
2019-03-17T07:42:05.026Z,2.53
2019-03-17T07:44:35.120Z,2.67
2019-03-17T07:47:05.166Z,2.20
2019-03-17T07:49:35.212Z,2.40
2019-03-17T07:52:05.375Z,2.57
2019-03-17T07:54:35.455Z,2.27
2019-03-17T07:57:05.473Z,2.77
2019-03-17T07:59:35.507Z,2.53
2019-03-17T08:02:05.640Z,3.17
2019-03-17T08:04:42.301Z,2.40
2019-03-17T08:07:07.544Z,2.00
2019-03-17T08:09:37.793Z,2.50
2019-03-17T08:12:07.759Z,1.70
2019-03-17T08:14:37.807Z,0.90
2019-03-17T08:17:07.841Z,0.77
2019-03-17T08:19:37.906Z,0.90
2019-03-17T08:22:07.981Z,0.80
2019-03-17T08:24:38.001Z,0.50
2019-03-17T08:27:08.038Z,0.50
2019-03-17T08:29:38.138Z,0.50
2019-03-17T08:32:08.185Z,0.60
2019-03-17T08:34:38.276Z,0.57
2019-03-17T08:37:08.274Z,0.50
2019-03-17T08:39:38.339Z,0.50
2019-03-17T08:42:08.354Z,0.60
2019-03-17T08:44:38.467Z,0.70
2019-03-17T08:47:09.771Z,0.67
2019-03-17T08:49:39.797Z,0.73
2019-03-17T08:52:09.879Z,0.50
2019-03-17T08:54:39.920Z,0.70
2019-03-17T08:57:09.943Z,0.70
2019-03-17T08:59:39.971Z,1.00
2019-03-17T09:02:09.981Z,0.60
2019-03-17T09:04:40.097Z,0.50
2019-03-17T09:07:10.131Z,0.50
2019-03-17T09:09:40.288Z,0.80
2019-03-17T09:12:10.344Z,0.50
2019-03-17T09:14:41.305Z,0.57
2019-03-17T09:17:14.711Z,0.70
2019-03-17T09:19:43.105Z,0.83
2019-03-17T09:22:13.184Z,1.00
2019-03-17T09:24:43.295Z,1.00
2019-03-17T09:27:20.829Z,1.00
2019-03-17T09:29:50.965Z,0.90
2019-03-17T09:32:21.029Z,1.10
2019-03-17T09:34:51.075Z,1.03
2019-03-17T09:37:21.153Z,0.70
2019-03-17T09:39:51.233Z,0.70
2019-03-17T09:42:21.286Z,1.10
2019-03-17T09:44:51.341Z,0.70
2019-03-17T09:47:21.402Z,1.00
2019-03-17T09:49:51.415Z,1.20
2019-03-17T09:52:21.554Z,0.90
2019-03-17T09:54:51.646Z,0.50
2019-03-17T09:57:21.765Z,0.80
2019-03-17T09:59:51.856Z,1.10
2019-03-17T10:02:25.719Z,1.10
2019-03-17T10:04:55.740Z,0.90
2019-03-17T10:07:25.874Z,1.10
2019-03-17T10:09:55.979Z,1.80
2019-03-17T10:12:26.087Z,1.23
2019-03-17T10:14:56.168Z,1.80
2019-03-17T10:17:26.306Z,1.70
2019-03-17T10:19:56.375Z,1.30
2019-03-17T10:22:26.441Z,1.70
2019-03-17T10:24:56.493Z,1.60
2019-03-17T10:27:26.758Z,1.40
2019-03-17T10:29:56.769Z,1.33
2019-03-17T10:32:27.004Z,1.77
2019-03-17T10:34:57.002Z,1.93
2019-03-17T10:37:27.136Z,1.60
2019-03-17T10:39:57.172Z,1.40
2019-03-17T10:42:27.265Z,1.40
2019-03-17T10:44:57.298Z,1.53
2019-03-17T10:47:27.790Z,1.80
2019-03-17T10:49:57.869Z,1.70
2019-03-17T10:52:28.008Z,1.77
2019-03-17T10:54:58.047Z,1.40
2019-03-17T10:57:28.116Z,1.50
2019-03-17T10:59:58.219Z,1.33
2019-03-17T11:02:28.409Z,2.00
2019-03-17T11:04:58.511Z,2.03
2019-03-17T11:07:28.588Z,1.77
2019-03-17T11:09:58.671Z,1.80
2019-03-17T11:12:28.761Z,1.60
2019-03-17T11:14:58.959Z,1.40
2019-03-17T11:17:29.090Z,1.60
2019-03-17T11:19:59.168Z,1.50
2019-03-17T11:22:29.205Z,1.30
2019-03-17T11:24:59.374Z,1.43
2019-03-17T11:27:29.493Z,1.83
2019-03-17T11:29:59.494Z,1.40
2019-03-17T11:32:29.558Z,1.90
2019-03-17T11:34:59.704Z,1.60
2019-03-17T11:37:29.854Z,1.40
2019-03-17T11:39:59.898Z,1.50
2019-03-17T11:42:29.958Z,1.43
2019-03-17T11:44:59.964Z,1.20
2019-03-17T11:47:30.078Z,1.53
2019-03-17T11:50:00.390Z,1.80
2019-03-17T11:52:30.478Z,1.53
2019-03-17T11:55:00.470Z,1.40
2019-03-17T11:57:30.534Z,1.50
2019-03-17T12:00:00.558Z,1.10
2019-03-17T12:02:30.626Z,1.17
2019-03-17T12:05:00.683Z,1.63
2019-03-17T12:07:30.741Z,1.43
2019-03-17T12:10:00.825Z,1.90
2019-03-17T12:12:31.201Z,1.60
2019-03-17T12:15:01.245Z,1.27
2019-03-17T12:17:31.714Z,1.30
2019-03-17T12:20:01.835Z,1.30
2019-03-17T12:22:31.892Z,1.30
2019-03-17T12:25:02.007Z,1.17
2019-03-17T12:27:32.110Z,1.17
2019-03-17T12:30:02.234Z,1.60
2019-03-17T12:32:32.348Z,1.07
2019-03-17T12:35:02.473Z,1.40
2019-03-17T12:37:32.598Z,1.10
2019-03-17T12:40:03.433Z,1.17
2019-03-17T12:42:33.690Z,1.13
2019-03-17T12:45:03.776Z,1.10
2019-03-17T12:47:33.866Z,1.03
2019-03-17T12:50:03.928Z,1.00
2019-03-17T12:52:34.023Z,1.17
2019-03-17T12:55:04.154Z,1.30
2019-03-17T12:57:34.239Z,1.20
2019-03-17T13:00:04.562Z,1.00
2019-03-17T13:02:34.816Z,1.30
2019-03-17T13:05:04.904Z,1.10
2019-03-17T13:07:35.004Z,1.70
2019-03-17T13:10:14.887Z,1.30
2019-03-17T13:12:37.627Z,1.20
2019-03-17T13:15:08.590Z,1.00
2019-03-17T13:17:38.715Z,1.10
2019-03-17T13:20:09.856Z,1.57
2019-03-17T13:22:40.002Z,1.10
2019-03-17T13:25:10.156Z,1.30
2019-03-17T13:27:40.215Z,0.93
2019-03-17T13:30:11.564Z,1.10
2019-03-17T13:32:41.708Z,1.10
2019-03-17T13:35:11.875Z,1.20
2019-03-17T13:37:41.891Z,1.10
2019-03-17T13:40:12.588Z,1.13
2019-03-17T13:42:42.642Z,1.20
2019-03-17T13:45:12.859Z,1.80
2019-03-17T13:47:42.954Z,2.17
2019-03-17T13:50:14.198Z,1.57
2019-03-17T13:52:44.316Z,1.80
2019-03-17T13:55:14.525Z,1.23
2019-03-17T13:57:44.803Z,1.40
2019-03-17T14:00:15.493Z,1.10
2019-03-17T14:02:45.637Z,0.90
2019-03-17T14:05:15.739Z,0.87
2019-03-17T14:07:45.769Z,0.40
2019-03-17T14:10:16.396Z,0.70
2019-03-17T14:12:46.497Z,0.60
2019-03-17T14:15:16.771Z,0.70
2019-03-17T14:17:46.796Z,0.67
2019-03-17T14:20:20.308Z,0.33
2019-03-17T14:22:49.749Z,0.43
2019-03-17T14:25:22.751Z,0.40
2019-03-17T14:27:52.840Z,0.77
2019-03-17T14:30:23.094Z,0.53
2019-03-17T14:32:53.178Z,1.17
2019-03-17T14:35:23.245Z,0.50
2019-03-17T14:37:53.300Z,0.53
2019-03-17T14:40:23.510Z,0.33
2019-03-17T14:42:55.436Z,0.50
2019-03-17T14:45:25.393Z,1.40
2019-03-17T14:47:55.451Z,2.23
2019-03-17T14:50:25.611Z,1.77
2019-03-17T14:52:55.707Z,1.00
2019-03-17T14:55:25.763Z,3.30
2019-03-17T14:57:55.831Z,1.93
2019-03-17T15:00:25.893Z,0.90
2019-03-17T15:02:55.963Z,0.83
2019-03-17T15:05:26.110Z,0.83
2019-03-17T15:07:56.161Z,0.40
2019-03-17T15:10:26.284Z,0.67
2019-03-17T15:12:56.903Z,0.57
2019-03-17T15:15:27.028Z,0.60
2019-03-17T15:17:57.088Z,0.50
2019-03-17T15:20:27.184Z,0.50
2019-03-17T15:22:57.214Z,0.40
2019-03-17T15:25:27.287Z,0.47
2019-03-17T15:27:57.434Z,0.57
2019-03-17T15:30:27.513Z,0.57
2019-03-17T15:32:57.583Z,0.30
2019-03-17T15:35:27.664Z,0.60
2019-03-17T15:37:57.724Z,0.57
2019-03-17T15:40:27.792Z,0.60
2019-03-17T15:42:57.840Z,0.67
2019-03-17T15:45:27.938Z,0.77
2019-03-17T15:47:58.022Z,0.60
2019-03-17T15:50:28.190Z,0.83
2019-03-17T15:52:58.253Z,1.23
2019-03-17T15:55:28.321Z,0.90
2019-03-17T15:57:58.499Z,0.50
2019-03-17T16:00:28.684Z,0.80
2019-03-17T16:02:58.688Z,0.60
2019-03-17T16:05:28.894Z,0.50
2019-03-17T16:07:58.918Z,0.50
2019-03-17T16:10:29.192Z,0.60
2019-03-17T16:12:59.295Z,1.23
2019-03-17T16:15:29.395Z,0.73
2019-03-17T16:17:59.426Z,0.67
2019-03-17T16:20:29.587Z,0.50
2019-03-17T16:22:59.627Z,0.60
2019-03-17T16:25:29.771Z,0.80
2019-03-17T16:27:59.854Z,0.50
2019-03-17T16:30:30.086Z,0.40
2019-03-17T16:33:00.148Z,0.63
2019-03-17T16:35:30.221Z,0.63
2019-03-17T16:38:00.345Z,2.10
2019-03-17T16:40:30.530Z,0.70
2019-03-17T16:43:00.586Z,0.83
2019-03-17T16:45:30.665Z,0.70
2019-03-17T16:48:00.799Z,0.80
2019-03-17T16:50:30.890Z,1.03
2019-03-17T16:53:00.952Z,0.83
2019-03-17T16:55:31.053Z,0.97
2019-03-17T16:58:01.122Z,1.00
2019-03-17T17:00:31.252Z,1.00
2019-03-17T17:03:01.339Z,1.00
2019-03-17T17:05:31.427Z,0.70
2019-03-17T17:08:01.558Z,1.00
2019-03-17T17:10:31.732Z,0.83
2019-03-17T17:13:01.805Z,1.10
2019-03-17T17:15:32.126Z,0.87
2019-03-17T17:18:02.267Z,0.80
2019-03-17T17:20:32.413Z,0.90
2019-03-17T17:23:02.606Z,0.87
2019-03-17T17:25:32.632Z,1.00
2019-03-17T17:28:02.716Z,0.80
2019-03-17T17:30:32.761Z,0.77
2019-03-17T17:33:02.851Z,0.97
2019-03-17T17:35:32.914Z,1.10
2019-03-17T17:38:03.011Z,0.80
2019-03-17T17:40:33.090Z,1.40
2019-03-17T17:43:03.193Z,0.97
2019-03-17T17:45:33.221Z,1.13
2019-03-17T17:48:03.349Z,0.90
2019-03-17T17:50:35.098Z,0.90
2019-03-17T17:53:05.151Z,0.90
2019-03-17T17:55:35.208Z,0.80
2019-03-17T17:58:05.391Z,0.70
2019-03-17T18:00:37.645Z,1.10
2019-03-17T18:03:08.969Z,0.90
2019-03-17T18:05:39.006Z,1.43
2019-03-17T18:08:09.076Z,0.90
2019-03-17T18:10:39.229Z,0.93
2019-03-17T18:13:09.315Z,1.00
2019-03-17T18:15:39.347Z,0.80
2019-03-17T18:18:09.514Z,0.70
2019-03-17T18:20:39.559Z,1.20
2019-03-17T18:23:17.756Z,1.10
2019-03-17T18:25:41.416Z,1.00
2019-03-17T18:28:11.490Z,0.80
2019-03-17T18:30:41.720Z,0.80
2019-03-17T18:33:11.903Z,0.77
2019-03-17T18:35:41.995Z,0.77
2019-03-17T18:38:12.155Z,1.40
2019-03-17T18:40:42.573Z,1.00
2019-03-17T18:43:12.744Z,1.00
2019-03-17T18:45:44.359Z,0.77
2019-03-17T18:48:14.469Z,1.17
2019-03-17T18:50:44.528Z,0.97
2019-03-17T18:53:14.689Z,1.20
2019-03-17T18:55:44.754Z,0.90
2019-03-17T18:58:14.805Z,1.07
2019-03-17T19:00:44.830Z,0.83
2019-03-17T19:03:14.925Z,1.00
2019-03-17T19:05:44.997Z,0.87
2019-03-17T19:08:15.249Z,1.07
2019-03-17T19:10:45.314Z,0.83
2019-03-17T19:13:15.457Z,0.93
2019-03-17T19:15:45.610Z,0.70
2019-03-17T19:18:16.073Z,0.77
2019-03-17T19:20:46.274Z,1.10
2019-03-17T19:23:16.421Z,0.90
2019-03-17T19:25:46.470Z,1.40
2019-03-17T19:28:16.603Z,1.70
2019-03-17T19:30:46.719Z,1.90
2019-03-17T19:33:16.777Z,0.90
2019-03-17T19:35:46.823Z,0.90
2019-03-17T19:38:16.874Z,1.10
2019-03-17T19:40:46.913Z,0.80
2019-03-17T19:43:17.012Z,1.37
2019-03-17T19:45:47.095Z,0.90
2019-03-17T19:48:17.179Z,1.17
2019-03-17T19:50:47.259Z,0.83
2019-03-17T19:53:17.377Z,0.70
2019-03-17T19:55:47.420Z,1.10
2019-03-17T19:58:17.593Z,0.90
2019-03-17T20:00:47.677Z,1.10
2019-03-17T20:03:17.766Z,2.03
2019-03-17T20:05:47.879Z,1.00
2019-03-17T20:08:17.956Z,0.67
2019-03-17T20:10:47.986Z,0.77
2019-03-17T20:13:18.030Z,0.80
2019-03-17T20:15:48.056Z,0.70
2019-03-17T20:18:18.150Z,1.40
2019-03-17T20:20:48.307Z,0.60
2019-03-17T20:23:21.319Z,0.93
2019-03-17T20:25:50.156Z,0.70
2019-03-17T20:28:20.218Z,1.10
2019-03-17T20:30:50.291Z,0.73
2019-03-17T20:33:20.334Z,0.97
2019-03-17T20:35:50.490Z,0.90
2019-03-17T20:38:20.510Z,0.73
2019-03-17T20:40:50.577Z,1.23
2019-03-17T20:43:34.121Z,0.90
2019-03-17T20:45:52.519Z,1.13
2019-03-17T20:48:22.739Z,1.10
2019-03-17T20:50:52.897Z,1.30
2019-03-17T20:53:22.947Z,0.83
2019-03-17T20:55:53.042Z,0.90
2019-03-17T20:58:23.181Z,0.73
2019-03-17T21:00:53.266Z,2.30
2019-03-17T21:03:23.384Z,0.67
2019-03-17T21:05:53.501Z,0.70
2019-03-17T21:08:23.692Z,0.87
2019-03-17T21:10:53.715Z,0.77
2019-03-17T21:13:23.799Z,1.10
2019-03-17T21:15:53.842Z,1.37
2019-03-17T21:18:23.853Z,0.80
2019-03-17T21:20:53.904Z,0.77
2019-03-17T21:23:23.938Z,1.12
2019-03-17T21:25:58.945Z,1.00
2019-03-17T21:28:28.964Z,0.67
2019-03-17T21:31:02.394Z,0.90
2019-03-17T21:33:32.422Z,0.90
2019-03-17T21:36:02.556Z,1.10
2019-03-17T21:38:32.669Z,0.83
2019-03-17T21:41:07.232Z,1.33
2019-03-17T21:43:34.449Z,0.97
2019-03-17T21:46:04.550Z,1.17
2019-03-17T21:48:34.607Z,0.73
2019-03-17T21:51:04.662Z,0.80
2019-03-17T21:53:34.690Z,0.63
2019-03-17T21:56:04.721Z,1.10
2019-03-17T21:58:34.744Z,0.80
2019-03-17T22:01:04.831Z,1.00
2019-03-17T22:03:35.075Z,0.70
2019-03-17T22:06:05.127Z,0.80
2019-03-17T22:08:35.159Z,1.00
2019-03-17T22:11:05.216Z,0.77
2019-03-17T22:13:35.263Z,0.83
2019-03-17T22:16:05.305Z,1.20
2019-03-17T22:18:35.317Z,0.90
2019-03-17T22:21:05.365Z,0.90
2019-03-17T22:23:35.362Z,1.00
2019-03-17T22:26:06.270Z,0.93
2019-03-17T22:28:36.284Z,0.77
2019-03-17T22:31:06.737Z,0.83
2019-03-17T22:33:36.745Z,0.67
2019-03-17T22:36:06.824Z,1.30
2019-03-17T22:38:37.281Z,1.00
2019-03-17T22:41:07.593Z,1.03
2019-03-17T22:43:37.750Z,0.70
2019-03-17T22:46:07.941Z,1.13
2019-03-17T22:48:38.021Z,0.90
2019-03-17T22:51:08.060Z,1.00
2019-03-17T22:53:38.183Z,0.77
2019-03-17T22:56:08.282Z,0.80
2019-03-17T22:58:38.375Z,0.83
2019-03-17T23:01:08.532Z,0.97
2019-03-17T23:03:38.655Z,0.83
2019-03-17T23:06:08.710Z,1.10
2019-03-17T23:08:38.904Z,0.93
2019-03-17T23:11:08.963Z,0.73
2019-03-17T23:13:39.062Z,1.10
2019-03-17T23:16:09.107Z,0.83
2019-03-17T23:18:39.173Z,0.90
2019-03-17T23:21:09.408Z,1.00
2019-03-17T23:23:39.710Z,1.00
2019-03-17T23:26:09.817Z,1.10
2019-03-17T23:28:39.787Z,0.90
2019-03-17T23:31:09.941Z,0.90
2019-03-17T23:33:40.048Z,0.63
2019-03-17T23:36:10.340Z,1.17
2019-03-17T23:38:40.595Z,0.80
2019-03-17T23:41:11.179Z,0.70
2019-03-17T23:43:41.205Z,0.90
2019-03-17T23:46:11.245Z,0.90
2019-03-17T23:48:41.266Z,1.10
2019-03-17T23:51:11.351Z,1.23
2019-03-17T23:53:41.405Z,1.00
2019-03-17T23:56:11.470Z,1.00
2019-03-17T23:58:41.489Z,0.80
